Time;durP1;ratioP1;P1;durP2;ratioP2;P2;SDS_P1;SDS_P2;PMS_P1;PMS_P2;Temp;Humidity;BMP_temperature;BMP_pressure;BME280_temperature;BME280_humidity;BME280_pressure;Samples;Min_cycle;Max_cycle;Signal;HPM_P1;HPM_P2
2022/11/22 00:01:02;;;;;;;88.22;22.95;;;3.10;99.90;;;;;;5111853;28;20034;-72
2022/11/22 00:03:28;;;;;;;111.22;25.15;;;3.10;99.90;;;;;;5111922;28;20032;-71
2022/11/22 00:05:53;;;;;;;97.93;23.67;;;3.00;99.90;;;;;;5111441;28;20020;-72
2022/11/22 00:08:19;;;;;;;59.53;23.48;;;3.10;99.90;;;;;;5111625;28;20057;-72
2022/11/22 00:10:48;;;;;;;68.20;24.17;;;3.10;99.90;;;;;;5112298;28;20023;-72
2022/11/22 00:13:14;;;;;;;93.75;23.67;;;3.10;99.90;;;;;;5115060;28;20016;-72
2022/11/22 00:15:40;;;;;;;74.60;23.58;;;3.10;99.90;;;;;;5115883;28;20020;-72
2022/11/22 00:18:06;;;;;;;99.05;24.13;;;3.00;99.90;;;;;;5115633;28;20035;-72
2022/11/22 00:20:32;;;;;;;80.53;24.02;;;3.00;99.90;;;;;;5115742;28;20093;-72
2022/11/22 00:22:58;;;;;;;69.82;26.25;;;3.10;99.90;;;;;;5115490;28;20027;-71
2022/11/22 00:25:24;;;;;;;61.72;23.92;;;3.00;99.90;;;;;;5115133;28;20103;-72
2022/11/22 00:27:49;;;;;;;90.72;24.73;;;3.00;99.90;;;;;;5115629;28;20031;-72
2022/11/22 00:30:15;;;;;;;75.63;24.15;;;3.00;99.90;;;;;;5114764;28;20020;-72
2022/11/22 00:32:41;;;;;;;68.28;22.73;;;2.90;99.90;;;;;;5115561;28;20472;-72
2022/11/22 00:35:07;;;;;;;63.67;22.85;;;2.90;99.90;;;;;;5114981;28;20111;-72
2022/11/22 00:37:32;;;;;;;58.50;24.88;;;2.90;99.90;;;;;;5115073;28;20046;-72
2022/11/22 00:39:58;;;;;;;62.65;24.05;;;2.80;99.90;;;;;;5115548;28;20026;-72
2022/11/22 00:42:24;;;;;;;74.07;23.23;;;2.90;99.90;;;;;;5114880;28;20432;-71
2022/11/22 00:44:49;;;;;;;77.45;22.73;;;2.90;99.90;;;;;;5115471;28;20073;-72
2022/11/22 00:47:15;;;;;;;67.72;23.38;;;2.80;99.90;;;;;;5114767;28;20399;-73
2022/11/22 00:49:41;;;;;;;103.30;26.52;;;2.70;99.90;;;;;;5115117;28;20333;-73
2022/11/22 00:52:06;;;;;;;92.35;20.83;;;2.70;99.90;;;;;;5115118;28;20033;-73
2022/11/22 00:54:32;;;;;;;106.78;22.13;;;2.70;99.90;;;;;;5114185;28;20043;-72
2022/11/22 00:56:57;;;;;;;78.25;23.60;;;2.60;99.90;;;;;;5115460;28;20061;-72
2022/11/22 00:59:23;;;;;;;134.07;21.63;;;2.60;99.90;;;;;;5114600;28;20024;-72
2022/11/22 01:01:49;;;;;;;46.25;21.15;;;2.60;99.90;;;;;;5115053;28;20047;-72
2022/11/22 01:04:14;;;;;;;151.20;20.48;;;2.60;99.90;;;;;;5114055;28;20357;-72
2022/11/22 01:06:40;;;;;;;100.75;20.60;;;2.60;99.90;;;;;;5115132;28;20039;-72
2022/11/22 01:09:05;;;;;;;141.13;21.38;;;2.50;99.90;;;;;;5114584;28;20464;-71
2022/11/22 01:11:31;;;;;;;51.70;19.85;;;2.50;99.90;;;;;;5114037;28;20132;-73
2022/11/22 01:13:57;;;;;;;123.22;20.80;;;2.50;99.90;;;;;;5114697;28;20349;-73
2022/11/22 01:16:22;;;;;;;114.78;21.95;;;2.50;99.90;;;;;;5114121;28;20085;-73
2022/11/22 01:18:48;;;;;;;142.48;20.70;;;2.40;99.90;;;;;;5114453;28;20034;-71
2022/11/22 01:21:14;;;;;;;91.32;20.25;;;2.40;99.90;;;;;;5114009;28;20020;-76
2022/11/22 01:23:39;;;;;;;131.52;19.80;;;2.40;99.90;;;;;;5113234;28;20020;-73
2022/11/22 01:26:07;;;;;;;62.03;19.77;;;2.40;99.90;;;;;;5114579;28;20066;-72
2022/11/22 01:28:33;;;;;;;59.00;20.65;;;2.40;99.90;;;;;;5113647;28;20105;-72
2022/11/22 01:30:58;;;;;;;83.63;19.40;;;2.40;99.90;;;;;;5114643;28;20028;-72
2022/11/22 01:33:24;;;;;;;80.75;20.88;;;2.40;99.90;;;;;;5112825;28;20445;-72
2022/11/22 01:35:50;;;;;;;93.10;20.55;;;2.40;99.90;;;;;;5114599;28;20044;-71
2022/11/22 01:38:16;;;;;;;123.75;19.75;;;2.40;99.90;;;;;;5114004;28;20028;-74
2022/11/22 01:40:42;;;;;;;92.57;18.52;;;2.40;99.90;;;;;;5114296;28;20028;-73
2022/11/22 01:43:27;;;;;;;76.70;19.40;;;2.40;99.90;;;;;;5114196;28;20023;-72
2022/11/22 01:45:59;;;;;;;77.47;20.23;;;2.50;99.90;;;;;;5114386;28;20070;-72
2022/11/22 01:48:45;;;;;;;75.35;19.50;;;2.50;99.90;;;;;;5113130;28;20541;-72
2022/11/22 01:51:27;;;;;;;50.45;18.60;;;2.50;99.90;;;;;;5114096;28;20024;-73
2022/11/22 01:53:57;;;;;;;78.55;19.45;;;2.50;99.90;;;;;;5114053;28;20039;-73
2022/11/22 01:56:24;;;;;;;44.88;18.77;;;2.60;99.90;;;;;;5113296;27;20058;-73
2022/11/22 01:58:56;;;;;;;85.57;19.85;;;2.60;99.90;;;;;;5113952;28;20031;-73
2022/11/22 02:01:21;;;;;;;80.55;18.98;;;2.60;99.90;;;;;;5113270;28;20080;-73
2022/11/22 02:03:50;;;;;;;54.55;19.38;;;2.60;99.90;;;;;;5113402;28;20027;-72
2022/11/22 02:06:17;;;;;;;49.55;20.20;;;2.60;99.90;;;;;;5113655;28;20024;-73
2022/11/22 02:09:04;;;;;;;45.53;19.40;;;2.70;99.90;;;;;;5113086;28;20108;-71
2022/11/22 02:11:30;;;;;;;49.55;18.60;;;2.70;99.90;;;;;;5112434;28;20521;-71
2022/11/22 02:13:56;;;;;;;47.35;20.30;;;2.70;99.90;;;;;;5112434;28;20047;-72
2022/11/22 02:16:23;;;;;;;55.53;20.25;;;2.80;99.90;;;;;;5113182;28;20028;-72
2022/11/22 02:18:48;;;;;;;49.70;21.02;;;2.80;99.90;;;;;;5113312;28;20116;-72
2022/11/22 02:21:14;;;;;;;57.20;20.85;;;2.80;99.90;;;;;;5113318;28;20459;-72
2022/11/22 02:24:05;;;;;;;70.07;22.10;;;2.90;99.90;;;;;;5111661;28;20024;-72
2022/11/22 02:26:31;;;;;;;63.17;21.02;;;2.90;99.90;;;;;;5112673;28;20460;-73
2022/11/22 02:29:03;;;;;;;61.00;20.23;;;2.90;99.90;;;;;;5113228;28;20487;-73
2022/11/22 02:31:39;;;;;;;51.40;21.83;;;3.00;99.90;;;;;;5112749;28;20031;-72
2022/11/22 02:34:05;;;;;;;66.57;22.77;;;3.00;99.90;;;;;;5112986;28;20105;-73
2022/11/22 02:36:37;;;;;;;52.15;22.63;;;3.00;99.90;;;;;;5112718;28;20042;-73
2022/11/22 02:39:02;;;;;;;53.80;21.70;;;3.00;99.90;;;;;;5113035;28;20403;-73
2022/11/22 02:41:28;;;;;;;49.50;21.52;;;3.10;99.90;;;;;;5112755;28;20028;-73
2022/11/22 02:43:54;;;;;;;60.15;22.67;;;3.10;99.90;;;;;;5113251;28;20095;-73
2022/11/22 02:46:21;;;;;;;49.38;21.52;;;3.10;99.90;;;;;;5112965;28;20027;-73
2022/11/22 02:48:47;;;;;;;61.72;22.02;;;3.10;99.90;;;;;;5113067;28;20032;-73
2022/11/22 02:51:15;;;;;;;64.07;21.50;;;3.20;99.90;;;;;;5112845;28;20096;-73
2022/11/22 02:53:42;;;;;;;44.10;19.83;;;3.20;99.90;;;;;;5112541;28;20038;-72
2022/11/22 02:56:08;;;;;;;63.97;21.63;;;3.20;99.90;;;;;;5112128;28;20472;-72
2022/11/22 02:58:33;;;;;;;62.97;22.70;;;3.20;99.90;;;;;;5117747;28;20080;-72
2022/11/22 03:00:59;;;;;;;58.35;22.27;;;3.30;99.90;;;;;;5133537;27;20016;-72
2022/11/22 03:03:25;;;;;;;57.78;22.17;;;3.30;99.90;;;;;;5132898;27;20076;-73
2022/11/22 03:05:50;;;;;;;54.25;21.13;;;3.30;99.90;;;;;;5133281;27;20062;-71
2022/11/22 03:08:16;;;;;;;53.03;21.67;;;3.30;99.90;;;;;;5132853;28;20035;-71
2022/11/22 03:10:42;;;;;;;55.42;22.10;;;3.30;99.90;;;;;;5131662;28;20039;-72
2022/11/22 03:13:07;;;;;;;50.40;23.10;;;3.40;99.90;;;;;;5133279;28;20031;-72
2022/11/22 03:15:33;;;;;;;54.20;22.73;;;3.40;99.90;;;;;;5132388;28;20383;-73
2022/11/22 03:18:00;;;;;;;47.80;21.70;;;3.40;99.90;;;;;;5133101;28;20046;-73
2022/11/22 03:20:26;;;;;;;51.20;22.23;;;3.50;99.90;;;;;;5132450;27;20437;-71
2022/11/22 03:22:52;;;;;;;52.10;22.77;;;3.50;99.90;;;;;;5132937;27;20031;-73
2022/11/22 03:25:18;;;;;;;46.78;21.58;;;3.50;99.90;;;;;;5133278;28;20046;-72
2022/11/22 03:27:44;;;;;;;49.15;21.30;;;3.50;99.90;;;;;;5132678;28;20031;-72
2022/11/22 03:30:10;;;;;;;53.83;21.50;;;3.60;99.90;;;;;;5133233;28;20027;-72
2022/11/22 03:32:35;;;;;;;43.97;19.95;;;3.60;99.90;;;;;;5132639;27;20051;-72
2022/11/22 03:35:01;;;;;;;45.67;19.80;;;3.60;99.90;;;;;;5132849;28;20100;-72
2022/11/22 03:37:27;;;;;;;44.03;21.10;;;3.60;99.90;;;;;;5132708;27;20019;-73
2022/11/22 03:39:52;;;;;;;51.03;21.38;;;3.60;99.90;;;;;;5133236;28;20038;-72
2022/11/22 03:42:18;;;;;;;44.30;20.02;;;3.70;99.90;;;;;;5133249;28;20031;-72
2022/11/22 03:44:44;;;;;;;42.58;19.90;;;3.70;99.90;;;;;;5132651;28;20027;-72
2022/11/22 03:47:09;;;;;;;43.05;19.65;;;3.70;99.90;;;;;;5134607;27;20043;-73
2022/11/22 03:49:35;;;;;;;41.40;19.58;;;3.80;99.90;;;;;;5135518;27;20431;-73
2022/11/22 03:52:00;;;;;;;44.88;19.80;;;3.80;99.90;;;;;;5136747;27;20110;-73
2022/11/22 03:54:26;;;;;;;44.15;19.65;;;3.80;99.90;;;;;;5136697;27;20019;-76
2022/11/22 03:56:52;;;;;;;40.28;18.50;;;3.80;99.90;;;;;;5136747;27;20088;-72
2022/11/22 03:59:17;;;;;;;38.90;18.65;;;3.80;99.90;;;;;;5137201;27;20110;-72
2022/11/22 04:01:43;;;;;;;42.97;19.88;;;3.90;99.90;;;;;;5135071;27;20027;-71
2022/11/22 04:04:10;;;;;;;36.08;18.40;;;3.90;99.90;;;;;;5136779;27;20368;-71
2022/11/22 04:06:35;;;;;;;41.72;18.90;;;3.90;99.90;;;;;;5135899;27;20463;-73
2022/11/22 04:09:01;;;;;;;40.90;18.77;;;3.90;99.90;;;;;;5136366;27;20034;-72
2022/11/22 04:11:26;;;;;;;40.78;19.15;;;4.00;99.90;;;;;;5136911;27;20030;-72
2022/11/22 04:16:36;;;;;;;52.13;23.50;;;4.00;99.90;;;;;;5135953;27;20034;-72
2022/11/22 04:19:02;;;;;;;38.67;19.30;;;4.00;99.90;;;;;;5121174;27;20028;-72
2022/11/22 04:21:33;;;;;;;40.70;18.85;;;4.00;99.90;;;;;;5115746;28;20031;-77
2022/11/22 04:26:55;;;;;;;33.05;16.95;;;4.10;99.90;;;;;;5115694;28;20087;-72
2022/11/22 04:29:21;;;;;;;37.55;18.08;;;4.10;99.90;;;;;;5115790;28;20027;-71
2022/11/22 04:34:32;;;;;;;40.22;18.52;;;4.10;99.90;;;;;;5114956;28;20062;-75
2022/11/22 04:36:58;;;;;;;32.72;17.05;;;4.10;99.90;;;;;;5115440;28;20028;-71
2022/11/22 04:39:24;;;;;;;32.63;16.98;;;4.10;99.90;;;;;;5115637;28;20047;-73
2022/11/22 04:44:39;;;;;;;35.83;17.98;;;4.10;99.90;;;;;;5114781;28;20108;-72
2022/11/22 04:44:40;;;;;;;31.33;16.23;;;4.20;99.90;;;;;;5114792;28;20358;-73
2022/11/22 04:47:11;;;;;;;31.23;16.83;;;4.20;99.90;;;;;;5115550;28;20121;-72
2022/11/22 04:49:36;;;;;;;34.53;18.25;;;4.20;99.90;;;;;;5115125;28;20033;-72
2022/11/22 04:54:47;;;;;;;31.75;17.58;;;4.20;99.90;;;;;;5114311;28;20070;-72
2022/11/22 04:57:13;;;;;;;33.25;17.38;;;4.20;99.90;;;;;;5114862;28;20476;-72
2022/11/22 04:59:38;;;;;;;35.28;17.63;;;4.20;99.90;;;;;;5113443;28;20157;-72
2022/11/22 05:02:04;;;;;;;29.95;16.15;;;4.20;99.90;;;;;;5115091;28;20068;-72
2022/11/22 05:04:31;;;;;;;32.42;16.30;;;4.30;99.90;;;;;;5115002;28;20092;-72
2022/11/22 05:06:56;;;;;;;30.77;16.15;;;4.30;99.90;;;;;;5114701;28;20119;-72
2022/11/22 05:09:22;;;;;;;31.13;16.52;;;4.30;99.90;;;;;;5114780;28;20133;-72
2022/11/22 05:11:48;;;;;;;33.58;17.15;;;4.30;99.90;;;;;;5114425;28;20051;-73
2022/11/22 05:14:14;;;;;;;33.15;16.35;;;4.30;99.90;;;;;;5114812;28;20024;-72
2022/11/22 05:16:40;;;;;;;34.38;16.38;;;4.30;99.90;;;;;;5114691;28;20111;-73
2022/11/22 05:19:05;;;;;;;36.60;18.08;;;4.30;99.90;;;;;;5114586;28;20075;-72
2022/11/22 05:21:34;;;;;;;30.80;15.93;;;4.40;99.90;;;;;;5114307;27;20027;-72
2022/11/22 05:24:00;;;;;;;30.65;16.55;;;4.40;99.90;;;;;;5115094;28;20027;-72
2022/11/22 05:26:32;;;;;;;35.75;16.80;;;4.40;99.90;;;;;;5113042;28;20428;-72
2022/11/22 05:29:02;;;;;;;33.67;17.42;;;4.40;99.90;;;;;;5114360;28;20058;-72
2022/11/22 05:31:28;;;;;;;33.13;18.33;;;4.40;99.90;;;;;;5114246;28;20360;-73
2022/11/22 05:33:55;;;;;;;40.38;20.15;;;4.40;99.90;;;;;;5113577;28;20103;-73
2022/11/22 05:36:22;;;;;;;35.75;18.08;;;4.40;99.90;;;;;;5114060;28;20475;-72
2022/11/22 05:38:48;;;;;;;36.63;17.77;;;4.50;99.90;;;;;;5113786;28;20456;-72
2022/11/22 05:41:15;;;;;;;34.85;18.00;;;4.50;99.90;;;;;;5112854;28;20038;-73
2022/11/22 05:43:41;;;;;;;41.80;18.50;;;4.50;99.90;;;;;;5113703;28;20023;-73
2022/11/22 05:46:16;;;;;;;35.08;18.85;;;4.50;99.90;;;;;;5114205;28;20034;-72
2022/11/22 05:48:44;;;;;;;35.55;18.00;;;4.50;99.90;;;;;;5113485;28;20127;-71
2022/11/22 05:51:18;;;;;;;36.67;19.73;;;4.60;99.90;;;;;;5114017;28;20031;-72
2022/11/22 05:53:44;;;;;;;33.15;18.05;;;4.60;99.90;;;;;;5113928;28;20023;-73
2022/11/22 05:56:18;;;;;;;36.58;19.67;;;4.60;99.90;;;;;;5114007;28;20337;-72
2022/11/22 05:58:44;;;;;;;34.22;17.55;;;4.60;99.90;;;;;;5113669;28;20055;-72
2022/11/22 06:01:17;;;;;;;36.35;19.25;;;4.60;99.90;;;;;;5112805;28;20132;-72
2022/11/22 06:03:43;;;;;;;34.38;19.02;;;4.60;99.90;;;;;;5113586;28;20035;-71
2022/11/22 06:06:10;;;;;;;38.22;19.23;;;4.60;99.90;;;;;;5113681;28;20032;-71
2022/11/22 06:08:39;;;;;;;32.78;17.65;;;4.60;99.90;;;;;;5113748;28;20036;-72
2022/11/22 06:11:13;;;;;;;31.17;16.88;;;4.60;99.90;;;;;;5113295;28;20464;-72
2022/11/22 06:13:40;;;;;;;31.60;17.02;;;4.60;99.90;;;;;;5113516;28;20100;-72
2022/11/22 06:16:07;;;;;;;30.02;17.27;;;4.70;99.90;;;;;;5113896;28;20019;-72
2022/11/22 06:18:34;;;;;;;30.88;17.30;;;4.70;99.90;;;;;;5113838;28;20042;-72
2022/11/22 06:21:01;;;;;;;31.05;16.30;;;4.70;99.90;;;;;;5113095;28;20028;-72
2022/11/22 06:23:27;;;;;;;30.67;17.60;;;4.70;99.90;;;;;;5111390;28;20019;-72
2022/11/22 06:26:13;;;;;;;31.25;16.92;;;4.70;99.90;;;;;;5113073;28;20038;-72
2022/11/22 06:28:39;;;;;;;33.53;17.52;;;4.70;99.90;;;;;;5112926;28;20036;-78
2022/11/22 06:31:05;;;;;;;29.48;15.98;;;4.70;99.90;;;;;;5113328;28;20032;-73
2022/11/22 06:33:32;;;;;;;28.88;16.85;;;4.80;99.90;;;;;;5113330;28;20039;-73
2022/11/22 06:36:06;;;;;;;33.45;17.30;;;4.80;99.90;;;;;;5112397;28;20052;-72
2022/11/22 06:38:32;;;;;;;30.23;16.70;;;4.80;99.90;;;;;;5113266;28;20060;-72
2022/11/22 06:41:06;;;;;;;32.17;17.33;;;4.80;99.90;;;;;;5112385;28;20027;-73
2022/11/22 06:43:33;;;;;;;31.80;16.75;;;4.80;99.90;;;;;;5113024;28;20020;-73
2022/11/22 06:46:00;;;;;;;29.70;16.85;;;4.80;99.90;;;;;;5112456;28;20027;-73
2022/11/22 06:48:28;;;;;;;28.60;16.33;;;4.90;99.90;;;;;;5112941;28;20032;-72
2022/11/22 06:50:58;;;;;;;31.90;17.52;;;4.90;99.90;;;;;;5112625;28;20127;-73
2022/11/22 06:53:27;;;;;;;29.02;16.38;;;4.90;99.90;;;;;;5112955;28;20052;-73
2022/11/22 06:55:59;;;;;;;30.83;16.90;;;4.90;99.90;;;;;;5112105;28;20028;-74
2022/11/22 06:58:25;;;;;;;33.80;16.88;;;4.90;99.90;;;;;;5112734;28;20027;-72
2022/11/22 07:00:50;;;;;;;28.55;16.15;;;5.00;99.90;;;;;;5111867;28;20023;-72
2022/11/22 07:03:16;;;;;;;36.35;17.33;;;5.00;99.90;;;;;;5112116;28;20028;-72
2022/11/22 07:05:51;;;;;;;31.63;16.92;;;5.00;99.90;;;;;;5112982;28;20023;-75
2022/11/22 07:08:17;;;;;;;33.58;17.52;;;5.00;99.90;;;;;;5113127;28;20039;-73
2022/11/22 07:10:43;;;;;;;31.30;16.65;;;5.00;99.90;;;;;;5112505;28;20036;-73
2022/11/22 07:13:08;;;;;;;30.95;18.17;;;5.00;99.90;;;;;;5112506;28;20418;-72
2022/11/22 07:15:34;;;;;;;33.30;18.10;;;4.90;99.90;;;;;;5112941;28;20096;-72
2022/11/22 07:18:00;;;;;;;40.22;17.73;;;4.90;99.90;;;;;;5112323;28;20056;-72
2022/11/22 07:20:25;;;;;;;31.55;17.52;;;4.90;99.90;;;;;;5112570;28;20026;-72
2022/11/22 07:22:51;;;;;;;34.00;18.33;;;4.90;99.90;;;;;;5114806;28;20402;-73
2022/11/22 07:25:16;;;;;;;31.63;18.40;;;4.90;99.90;;;;;;5116852;28;20027;-73
2022/11/22 07:27:42;;;;;;;33.67;18.15;;;4.90;99.90;;;;;;5116831;28;20122;-73
2022/11/22 07:30:08;;;;;;;36.78;18.40;;;4.90;99.90;;;;;;5116285;28;20041;-72
2022/11/22 07:32:34;;;;;;;36.40;18.48;;;4.90;99.90;;;;;;5116644;28;20476;-72
2022/11/22 07:35:00;;;;;;;35.33;17.63;;;4.90;99.90;;;;;;5115745;28;20135;-72
2022/11/22 07:37:25;;;;;;;35.75;19.10;;;4.90;99.90;;;;;;5116182;28;20079;-72
2022/11/22 07:39:51;;;;;;;34.33;18.70;;;4.90;99.90;;;;;;5114784;28;20035;-72
2022/11/22 07:42:17;;;;;;;37.13;19.23;;;4.90;99.90;;;;;;5116051;28;20031;-73
2022/11/22 07:44:42;;;;;;;31.55;18.02;;;4.90;99.90;;;;;;5115970;28;20065;-72
2022/11/22 07:47:08;;;;;;;31.95;18.13;;;4.90;99.90;;;;;;5115662;28;20476;-72
2022/11/22 07:49:33;;;;;;;40.47;19.67;;;4.90;99.90;;;;;;5115198;28;20110;-73
2022/11/22 07:51:59;;;;;;;33.47;17.55;;;4.90;99.90;;;;;;5115651;28;20020;-73
2022/11/22 07:54:25;;;;;;;33.08;17.27;;;4.90;99.90;;;;;;5116886;28;20023;-73
2022/11/22 07:56:50;;;;;;;34.05;17.50;;;4.90;99.90;;;;;;5115815;28;20027;-73
2022/11/22 07:59:16;;;;;;;37.03;19.50;;;4.90;99.90;;;;;;5116212;28;20027;-73
2022/11/22 08:01:42;;;;;;;35.88;20.00;;;4.80;99.90;;;;;;5114812;28;20372;-73
2022/11/22 08:04:08;;;;;;;33.85;18.13;;;4.80;99.90;;;;;;5115421;28;20172;-73
2022/11/22 08:06:34;;;;;;;34.33;19.67;;;4.80;99.90;;;;;;5115984;28;20103;-72
2022/11/22 08:08:59;;;;;;;36.53;19.70;;;4.70;99.90;;;;;;5115266;28;20508;-72
2022/11/22 08:11:25;;;;;;;34.45;19.55;;;4.70;99.90;;;;;;5115959;28;20019;-72
2022/11/22 08:13:51;;;;;;;37.22;20.05;;;4.70;99.90;;;;;;5115480;28;20023;-73
2022/11/22 08:16:17;;;;;;;37.55;20.58;;;4.70;99.90;;;;;;5115672;28;20051;-73
2022/11/22 08:18:49;;;;;;;36.53;19.75;;;4.70;99.90;;;;;;5115689;28;20041;-73
2022/11/22 08:21:16;;;;;;;35.65;19.40;;;4.70;99.90;;;;;;5115664;28;20034;-73
2022/11/22 08:23:43;;;;;;;35.72;20.48;;;4.70;99.90;;;;;;5115765;28;20103;-73
2022/11/22 08:26:11;;;;;;;33.33;20.80;;;4.70;99.90;;;;;;5115326;28;20035;-73
2022/11/22 08:28:37;;;;;;;37.70;21.08;;;4.60;99.90;;;;;;5115634;27;20126;-73
2022/11/22 08:31:12;;;;;;;37.20;19.23;;;4.50;99.90;;;;;;5115152;28;20028;-72
2022/11/22 08:33:38;;;;;;;35.50;21.48;;;4.50;99.90;;;;;;5115548;28;20107;-72
2022/11/22 08:36:04;;;;;;;40.60;21.30;;;4.50;99.90;;;;;;5114775;28;20055;-73
2022/11/22 08:38:30;;;;;;;31.40;19.27;;;4.40;99.90;;;;;;5115643;28;20043;-73
2022/11/22 08:40:56;;;;;;;36.80;20.88;;;4.40;99.90;;;;;;5115113;28;20035;-73
2022/11/22 08:43:22;;;;;;;39.65;22.00;;;4.40;99.90;;;;;;5115245;28;20039;-73
2022/11/22 08:45:52;;;;;;;36.67;21.05;;;4.50;99.90;;;;;;5115274;28;20397;-74
2022/11/22 08:48:17;;;;;;;41.72;21.67;;;4.40;99.90;;;;;;5115221;28;20395;-72
2022/11/22 08:50:56;;;;;;;37.55;21.85;;;4.40;99.90;;;;;;5115338;28;20020;-73
2022/11/22 08:53:22;;;;;;;42.00;22.98;;;4.40;99.90;;;;;;5114944;28;20448;-73
2022/11/22 08:55:47;;;;;;;36.05;22.45;;;4.40;99.90;;;;;;5115504;28;20086;-74
2022/11/22 08:58:13;;;;;;;40.30;22.65;;;4.40;99.90;;;;;;5114376;28;20471;-75
2022/11/22 09:00:39;;;;;;;37.90;22.40;;;4.40;99.90;;;;;;5114258;28;20024;-73
2022/11/22 09:03:05;;;;;;;35.10;21.55;;;4.30;99.90;;;;;;5114396;28;20493;-74
2022/11/22 09:05:31;;;;;;;35.28;21.75;;;4.40;99.90;;;;;;5115085;28;20069;-73
2022/11/22 09:07:57;;;;;;;40.33;21.90;;;4.30;99.90;;;;;;5114090;28;20460;-73
2022/11/22 09:10:23;;;;;;;36.47;22.25;;;4.40;99.90;;;;;;5114719;28;20157;-73
2022/11/22 09:12:48;;;;;;;38.55;22.40;;;4.40;99.90;;;;;;5114918;28;20489;-72
2022/11/22 09:15:14;;;;;;;38.35;22.80;;;4.40;99.90;;;;;;5113055;28;20016;-73
2022/11/22 09:17:41;;;;;;;40.05;23.33;;;4.40;99.90;;;;;;5114658;28;20031;-73
2022/11/22 09:20:07;;;;;;;40.15;22.73;;;4.40;99.90;;;;;;5114379;28;20028;-73
2022/11/22 09:22:33;;;;;;;37.45;23.50;;;4.40;99.90;;;;;;5114561;28;20058;-74
2022/11/22 09:24:59;;;;;;;42.20;23.92;;;4.40;99.90;;;;;;5114273;28;20028;-74
2022/11/22 09:27:25;;;;;;;43.13;25.10;;;4.40;99.90;;;;;;5113059;28;20122;-74
2022/11/22 09:29:51;;;;;;;40.55;24.08;;;4.40;99.90;;;;;;5114587;28;20076;-74
2022/11/22 09:32:17;;;;;;;40.88;24.65;;;4.40;99.90;;;;;;5113979;28;20024;-74
2022/11/22 09:34:42;;;;;;;40.97;24.80;;;4.40;99.90;;;;;;5114004;28;20514;-74
2022/11/22 09:37:08;;;;;;;44.65;26.17;;;4.40;99.90;;;;;;5112556;28;20463;-74
2022/11/22 09:39:34;;;;;;;44.55;26.45;;;4.40;99.90;;;;;;5114591;28;20078;-74
2022/11/22 09:42:04;;;;;;;43.97;26.45;;;4.50;99.90;;;;;;5113583;28;20468;-74
2022/11/22 09:44:51;;;;;;;42.65;24.58;;;4.50;99.90;;;;;;5112194;28;20118;-74
2022/11/22 09:47:38;;;;;;;45.03;25.15;;;4.50;99.90;;;;;;5113731;28;20040;-74
2022/11/22 09:50:09;;;;;;;42.47;25.95;;;4.50;99.90;;;;;;5113608;28;20025;-74
2022/11/22 09:53:01;;;;;;;38.20;23.52;;;4.50;99.90;;;;;;5113939;28;20024;-74
2022/11/22 09:55:39;;;;;;;42.28;25.52;;;4.50;99.90;;;;;;5114052;28;20406;-74
2022/11/22 09:58:32;;;;;;;43.78;25.23;;;4.50;99.90;;;;;;5113834;28;20476;-73
2022/11/22 10:01:25;;;;;;;40.28;24.25;;;4.50;99.90;;;;;;5105025;28;20051;-73
2022/11/22 10:04:05;;;;;;;40.95;25.73;;;4.60;99.90;;;;;;5113489;28;20430;-73
2022/11/22 10:06:36;;;;;;;42.20;25.40;;;4.60;99.90;;;;;;5113707;28;20031;-74
2022/11/22 10:09:27;;;;;;;41.47;24.73;;;4.60;99.90;;;;;;5113192;28;20040;-73
2022/11/22 10:12:01;;;;;;;39.42;24.00;;;4.60;99.90;;;;;;5113544;28;20032;-73
2022/11/22 10:14:45;;;;;;;39.72;25.58;;;4.60;99.90;;;;;;5112938;28;20031;-75
2022/11/22 10:17:16;;;;;;;39.08;24.23;;;4.60;99.90;;;;;;5111953;28;20031;-74
2022/11/22 10:20:03;;;;;;;33.75;22.90;;;4.70;99.90;;;;;;5113345;28;20059;-74
2022/11/22 10:22:29;;;;;;;41.53;24.23;;;4.70;99.90;;;;;;5113479;27;20032;-74
2022/11/22 10:24:58;;;;;;;37.55;23.55;;;4.70;99.90;;;;;;5113558;28;20099;-73
2022/11/22 10:27:31;;;;;;;41.10;23.38;;;4.70;99.90;;;;;;5113467;28;20031;-74
2022/11/22 10:30:05;;;;;;;39.83;24.80;;;4.70;99.90;;;;;;5113482;28;20031;-74
2022/11/22 10:32:47;;;;;;;38.70;23.23;;;4.80;99.90;;;;;;5113334;28;20111;-74
2022/11/22 10:35:12;;;;;;;37.92;21.40;;;4.80;99.90;;;;;;5112846;28;20093;-75
2022/11/22 10:37:41;;;;;;;38.65;23.90;;;4.80;99.90;;;;;;5113209;28;20407;-74
2022/11/22 10:40:29;;;;;;;33.80;22.58;;;4.90;99.90;;;;;;5112681;28;20102;-74
2022/11/22 10:43:41;;;;;;;41.00;24.65;;;4.90;99.90;;;;;;5113221;28;20020;-74
2022/11/22 10:46:20;;;;;;;35.97;21.73;;;4.90;99.90;;;;;;5112646;28;20023;-73
2022/11/22 10:48:56;;;;;;;33.88;22.98;;;4.90;99.90;;;;;;5112917;28;20039;-73
2022/11/22 10:51:26;;;;;;;39.38;23.85;;;4.90;99.90;;;;;;5112467;28;20405;-74
2022/11/22 10:54:09;;;;;;;34.13;23.13;;;4.90;99.90;;;;;;5112500;28;20058;-73
2022/11/22 10:56:59;;;;;;;36.80;23.23;;;4.90;99.90;;;;;;5110794;28;20051;-73
2022/11/22 10:59:34;;;;;;;37.17;23.77;;;5.00;99.90;;;;;;5112306;28;20032;-74
2022/11/22 11:02:25;;;;;;;37.35;23.80;;;5.00;99.90;;;;;;5112841;28;20027;-74
2022/11/22 11:04:53;;;;;;;38.25;23.70;;;5.00;99.90;;;;;;5113208;28;20049;-73
2022/11/22 11:07:22;;;;;;;34.60;22.30;;;5.10;99.90;;;;;;5112475;28;20097;-73
2022/11/22 11:10:02;;;;;;;35.70;23.23;;;5.10;99.90;;;;;;5112809;28;20103;-73
2022/11/22 11:12:37;;;;;;;36.50;23.08;;;5.10;99.90;;;;;;5113014;28;20157;-74
2022/11/22 11:15:11;;;;;;;36.38;22.75;;;5.10;99.90;;;;;;5112234;28;20032;-74
2022/11/22 11:17:37;;;;;;;32.50;21.25;;;5.10;99.90;;;;;;5111418;28;20084;-73
2022/11/22 11:20:18;;;;;;;31.75;20.98;;;5.10;99.90;;;;;;5112375;28;20059;-73
2022/11/22 11:22:44;;;;;;;35.10;20.45;;;5.10;99.90;;;;;;5112841;28;20057;-74
2022/11/22 11:25:41;;;;;;;32.92;20.63;;;5.20;99.90;;;;;;5112253;28;20157;-74
2022/11/22 11:28:16;;;;;;;31.42;19.95;;;5.10;99.90;;;;;;5095712;28;20059;-75
2022/11/22 11:30:48;;;;;;;32.30;21.27;;;5.20;99.90;;;;;;5112568;28;20028;-74
2022/11/22 11:33:27;;;;;;;34.17;20.60;;;5.20;99.90;;;;;;5112101;28;20074;-75
2022/11/22 11:36:03;;;;;;;35.95;21.75;;;5.20;99.90;;;;;;5112621;28;20055;-73
2022/11/22 11:38:47;;;;;;;32.28;20.25;;;5.20;99.90;;;;;;5112699;28;20133;-72
2022/11/22 11:41:33;;;;;;;31.88;19.23;;;5.30;99.90;;;;;;5112562;28;20038;-73
2022/11/22 11:44:02;;;;;;;33.35;18.98;;;5.20;99.90;;;;;;5112294;28;20043;-73
2022/11/22 11:46:35;;;;;;;34.03;18.83;;;5.20;99.90;;;;;;5110834;28;20026;-74
2022/11/22 11:49:14;;;;;;;35.25;18.92;;;5.30;99.90;;;;;;5112229;28;20107;-73
2022/11/22 11:51:43;;;;;;;33.10;18.65;;;5.30;99.90;;;;;;5112310;28;20028;-74
2022/11/22 11:54:29;;;;;;;32.05;18.48;;;5.30;99.90;;;;;;5111927;28;20038;-74
2022/11/22 11:56:56;;;;;;;33.78;17.77;;;5.30;99.90;;;;;;5112097;28;20107;-74
2022/11/22 11:59:31;;;;;;;29.52;17.75;;;5.30;99.90;;;;;;5111875;28;20043;-74
2022/11/22 12:02:24;;;;;;;25.02;15.82;;;5.40;99.90;;;;;;5112472;28;20047;-73
2022/11/22 12:05:01;;;;;;;28.77;16.40;;;5.40;99.90;;;;;;5112393;28;20028;-73
2022/11/22 12:07:35;;;;;;;29.58;16.35;;;5.40;99.90;;;;;;5112381;28;20036;-75
2022/11/22 12:10:22;;;;;;;26.00;15.95;;;5.40;99.90;;;;;;5116293;28;20368;-74
2022/11/22 12:12:53;;;;;;;25.58;15.77;;;5.40;99.90;;;;;;5115722;28;20101;-73
2022/11/22 12:15:31;;;;;;;25.70;15.30;;;5.40;99.90;;;;;;5115146;28;20023;-74
2022/11/22 12:18:05;;;;;;;25.00;15.80;;;5.40;99.90;;;;;;5114318;28;20080;-74
2022/11/22 12:21:12;;;;;;;23.67;15.05;;;5.40;99.90;;;;;;5115407;28;20472;-73
2022/11/22 12:23:58;;;;;;;26.77;14.80;;;5.50;99.90;;;;;;5116083;28;20023;-73
2022/11/22 12:26:26;;;;;;;23.88;14.27;;;5.50;99.90;;;;;;5104268;28;20031;-74
2022/11/22 12:28:53;;;;;;;22.98;15.13;;;5.60;99.90;;;;;;5115177;28;20036;-73
2022/11/22 12:32:05;;;;;;;23.38;14.65;;;5.60;99.90;;;;;;5115366;28;20023;-74
2022/11/22 12:34:54;;;;;;;24.42;15.45;;;5.60;99.90;;;;;;5114908;28;20056;-73
2022/11/22 12:37:29;;;;;;;24.10;14.10;;;5.70;99.90;;;;;;5115300;28;20110;-73
2022/11/22 12:40:00;;;;;;;26.05;15.57;;;5.70;99.90;;;;;;5115510;28;20028;-73
2022/11/22 12:42:40;;;;;;;24.73;13.65;;;5.70;99.90;;;;;;5113695;28;20379;-73
2022/11/22 12:45:15;;;;;;;28.63;13.80;;;5.80;99.90;;;;;;5115231;28;20069;-73
2022/11/22 12:47:43;;;;;;;23.35;15.00;;;5.80;99.90;;;;;;5115601;28;20032;-73
2022/11/22 12:50:16;;;;;;;25.50;15.00;;;5.80;99.90;;;;;;5115040;28;20479;-77
2022/11/22 12:52:47;;;;;;;27.08;16.77;;;5.90;99.90;;;;;;5115037;28;20019;-74
2022/11/22 12:55:18;;;;;;;27.98;18.77;;;5.90;99.90;;;;;;5114966;28;20024;-75
2022/11/22 12:57:59;;;;;;;33.33;20.42;;;5.90;99.90;;;;;;5115526;28;20080;-75
2022/11/22 13:00:29;;;;;;;28.10;20.08;;;5.90;99.90;;;;;;5114229;28;20028;-74